createdAt,value
2023-03-05T00:00:49.485Z,31.08
2023-03-05T00:01:49.544Z,29.41
2023-03-05T00:02:49.603Z,34.71
2023-03-05T00:03:49.694Z,29.45
2023-03-05T00:04:49.701Z,32.61
2023-03-05T00:05:49.756Z,32.08
2023-03-05T00:06:49.820Z,32.68
2023-03-05T00:07:49.868Z,32.71
2023-03-05T00:08:49.911Z,32.10
2023-03-05T00:09:49.971Z,31.07
2023-03-05T00:10:50.029Z,31.56
2023-03-05T00:11:50.090Z,27.05
2023-03-05T00:12:50.153Z,31.76
2023-03-05T00:13:50.209Z,30.73
2023-03-05T00:14:50.268Z,33.25
2023-03-05T00:15:50.632Z,31.72
2023-03-05T00:16:50.364Z,34.15
2023-03-05T00:17:50.424Z,32.53
2023-03-05T00:18:50.470Z,35.20
2023-03-05T00:19:50.607Z,29.37
2023-03-05T00:20:50.585Z,35.63
2023-03-05T00:21:50.641Z,31.30
2023-03-05T00:22:50.693Z,31.56
2023-03-05T00:23:50.802Z,33.13
2023-03-05T00:24:50.792Z,35.13
2023-03-05T00:25:50.858Z,30.47
2023-03-05T02:28:58.628Z,32.22
2023-03-05T02:29:57.784Z,30.34
2023-03-05T02:30:57.841Z,30.18
2023-03-05T02:31:58.012Z,30.89
2023-03-05T02:32:57.957Z,30.26
2023-03-05T02:33:58.027Z,31.83
2023-03-05T02:34:58.073Z,29.03
2023-03-05T02:35:58.304Z,31.81
2023-03-05T02:36:58.181Z,30.35
2023-03-05T02:37:58.238Z,31.40
2023-03-05T02:38:58.287Z,30.28
2023-03-05T02:39:58.338Z,32.21
2023-03-05T02:40:58.414Z,29.76
2023-03-05T02:41:58.463Z,27.97
2023-03-05T02:42:58.530Z,30.06
2023-03-05T02:43:58.608Z,30.30
2023-03-05T02:44:58.653Z,30.76
2023-03-05T02:45:58.745Z,30.27
2023-03-05T02:53:59.143Z,30.93
2023-03-05T02:54:59.206Z,31.81
2023-03-05T02:55:59.255Z,31.23
2023-03-05T02:56:59.310Z,29.13
2023-03-05T02:57:59.381Z,28.70
2023-03-05T02:58:59.467Z,29.37
2023-03-05T02:59:59.552Z,31.36
2023-03-05T03:00:59.608Z,29.28
2023-03-05T03:01:59.619Z,30.53
2023-03-05T03:02:59.732Z,27.61
2023-03-05T03:04:00.636Z,30.39
2023-03-05T03:04:59.780Z,31.31
2023-03-05T03:05:59.849Z,28.52
2023-03-05T03:06:59.896Z,31.18
2023-03-05T03:07:59.970Z,28.13
2023-03-05T03:09:00.106Z,29.38
2023-03-05T03:10:00.109Z,30.64
2023-03-05T03:11:00.131Z,30.93
2023-03-05T03:12:00.204Z,29.63
2023-03-05T03:13:00.254Z,29.90
2023-03-05T03:14:01.144Z,28.57
2023-03-05T03:15:00.364Z,30.26
2023-03-05T03:16:00.417Z,28.54
2023-03-05T03:17:00.513Z,32.22
2023-03-05T03:18:00.549Z,29.84
2023-03-05T03:19:00.583Z,30.22
2023-03-05T03:20:00.642Z,29.17
2023-03-05T03:21:00.738Z,27.68
2023-03-05T03:22:00.752Z,31.46
2023-03-05T03:23:00.812Z,27.52
2023-03-05T03:24:00.870Z,27.10
2023-03-05T03:25:00.928Z,29.89
2023-03-05T03:26:00.985Z,29.39
2023-03-05T03:27:01.043Z,27.62
2023-03-05T03:28:01.117Z,30.55
2023-03-05T03:29:01.152Z,29.32
2023-03-05T03:30:01.211Z,28.58
2023-03-05T03:31:01.336Z,28.33
2023-03-05T03:32:01.358Z,28.50
2023-03-05T03:33:01.421Z,29.11
2023-03-05T03:34:01.460Z,28.86
2023-03-05T03:35:01.519Z,25.52
2023-03-05T03:36:01.567Z,28.75
2023-03-05T03:37:01.626Z,28.45
2023-03-05T03:38:01.691Z,30.17
2023-03-05T03:39:01.735Z,27.58
2023-03-05T03:40:01.785Z,28.16
2023-03-05T03:41:01.867Z,30.20
2023-03-05T03:42:01.904Z,28.82
2023-03-05T03:43:01.945Z,31.85
2023-03-05T03:44:02.008Z,32.80
2023-03-05T03:45:02.060Z,30.33
2023-03-05T03:46:02.135Z,29.89
2023-03-05T03:47:02.186Z,29.24
2023-03-05T03:48:02.213Z,31.01
2023-03-05T03:49:02.262Z,29.38
2023-03-05T03:50:02.359Z,32.08
2023-03-05T03:51:02.369Z,33.62
2023-03-05T03:52:02.433Z,30.39
2023-03-05T03:53:02.475Z,32.01
2023-03-05T03:54:02.531Z,35.68
2023-03-05T03:55:02.590Z,32.27
2023-03-05T03:56:03.160Z,31.96
2023-03-05T03:57:02.732Z,31.57
2023-03-05T03:58:02.750Z,32.79
2023-03-05T03:59:02.813Z,29.97
2023-03-05T04:00:02.880Z,30.96
2023-03-05T04:01:02.928Z,29.97
2023-03-05T04:02:02.985Z,29.19
2023-03-05T04:03:03.049Z,33.74
2023-03-05T04:04:03.145Z,30.26
2023-03-05T04:05:03.155Z,30.46
2023-03-05T04:06:03.214Z,31.30
2023-03-05T04:07:03.282Z,29.61
2023-03-05T04:08:03.373Z,30.49
2023-03-05T04:09:03.402Z,30.67
2023-03-05T04:10:06.265Z,30.16
2023-03-05T04:11:03.445Z,32.09
2023-03-05T04:12:03.434Z,33.24
2023-03-05T04:13:03.428Z,32.51
2023-03-05T04:14:03.438Z,31.75
2023-03-05T04:15:03.417Z,30.73
2023-03-05T04:16:03.410Z,27.64
2023-03-05T04:17:03.404Z,27.50
2023-03-05T04:18:03.390Z,31.54
2023-03-05T04:19:03.390Z,31.59
2023-03-05T04:20:03.391Z,28.66
2023-03-05T04:21:03.385Z,26.91
2023-03-05T04:22:03.356Z,27.84
2023-03-05T04:23:03.353Z,29.98
2023-03-05T04:24:03.685Z,28.69
2023-03-05T04:25:03.357Z,28.90
2023-03-05T04:26:03.335Z,29.67
2023-03-05T04:27:03.323Z,31.84
2023-03-05T04:28:03.336Z,30.91
2023-03-05T04:29:03.683Z,27.38
2023-03-05T04:30:03.309Z,31.68
2023-03-05T04:31:03.354Z,26.05
2023-03-05T04:32:03.343Z,27.30
2023-03-05T04:33:03.293Z,32.02
2023-03-05T04:34:03.329Z,29.52
2023-03-05T04:35:03.267Z,29.35
2023-03-05T04:36:03.258Z,28.71
2023-03-05T04:37:03.256Z,28.60
2023-03-05T04:38:03.288Z,28.91
2023-03-05T04:39:03.239Z,29.68
2023-03-05T04:40:03.242Z,32.75
2023-03-05T04:41:03.235Z,30.86
2023-03-05T04:42:03.210Z,30.30
2023-03-05T04:43:03.284Z,30.47
2023-03-05T04:44:03.274Z,30.96
2023-03-05T04:45:03.192Z,29.38
2023-03-05T04:46:03.238Z,33.44
2023-03-05T04:47:03.182Z,30.64
2023-03-05T04:48:03.182Z,34.02
2023-03-05T04:49:03.233Z,32.93
2023-03-05T04:50:03.303Z,31.92
2023-03-05T04:51:03.351Z,34.23
2023-03-05T04:52:03.409Z,34.82
2023-03-05T04:53:03.467Z,33.29
2023-03-05T04:54:03.527Z,31.47
2023-03-05T04:55:03.598Z,31.03
2023-03-05T04:56:03.646Z,29.04
2023-03-05T04:57:03.682Z,29.63
2023-03-05T04:58:03.748Z,33.04
2023-03-05T04:59:03.875Z,32.09
2023-03-05T05:00:03.852Z,31.09
2023-03-05T05:01:03.926Z,31.38
2023-03-05T05:02:04.002Z,34.36
2023-03-05T05:03:04.044Z,29.61
2023-03-05T05:04:04.070Z,29.82
2023-03-05T05:05:04.130Z,33.03
2023-03-05T05:06:04.199Z,31.46
2023-03-05T05:07:04.241Z,32.27
2023-03-05T05:08:04.290Z,31.91
2023-03-05T05:09:04.343Z,31.16
2023-03-05T05:10:04.681Z,36.18
2023-03-05T05:11:04.469Z,31.05
2023-03-05T05:12:04.505Z,29.62
2023-03-05T05:13:04.562Z,35.25
2023-03-05T05:14:04.628Z,33.91
2023-03-05T05:15:04.681Z,32.41
2023-03-05T05:16:05.750Z,34.13
2023-03-05T05:17:04.786Z,32.98
2023-03-05T05:18:04.846Z,31.78
2023-03-05T05:19:04.928Z,30.78
2023-03-05T05:20:04.951Z,30.79
2023-03-05T05:21:05.008Z,33.29
2023-03-05T05:22:05.054Z,34.56
2023-03-05T05:23:05.107Z,33.88
2023-03-05T06:12:07.735Z,32.87
2023-03-05T06:13:07.803Z,32.47
2023-03-05T06:14:07.842Z,33.99
2023-03-05T06:15:07.900Z,32.39
2023-03-05T06:17:07.977Z,38.64
2023-03-05T06:18:08.037Z,33.17
2023-03-05T06:19:08.085Z,33.16
2023-03-05T06:20:08.130Z,33.71
2023-03-05T06:21:08.182Z,34.05
2023-03-05T06:22:08.230Z,31.62
2023-03-05T06:23:08.273Z,34.12
2023-03-05T06:24:08.396Z,33.15
2023-03-05T06:25:08.723Z,32.92
2023-03-05T06:26:08.404Z,34.82
2023-03-05T06:27:08.451Z,32.37
2023-03-05T06:28:09.220Z,36.63
2023-03-05T06:29:08.553Z,36.69
2023-03-05T06:30:08.585Z,33.32
2023-03-05T06:31:08.692Z,33.64
2023-03-05T06:32:08.703Z,35.15
2023-03-05T06:33:08.710Z,30.19
2023-03-05T06:34:08.748Z,37.37
2023-03-05T06:35:08.781Z,33.94
2023-03-05T06:36:08.842Z,34.36
2023-03-05T06:37:08.870Z,35.49
2023-03-05T06:38:08.914Z,33.76
2023-03-05T06:39:09.015Z,36.03
2023-03-05T06:40:08.997Z,38.00
2023-03-05T06:41:09.044Z,35.62
2023-03-05T06:42:09.088Z,35.59
2023-03-05T06:43:09.723Z,35.45
2023-03-05T06:44:09.167Z,37.14
2023-03-05T06:45:09.198Z,40.17
2023-03-05T06:46:09.262Z,38.61
2023-03-05T06:47:09.272Z,36.97
2023-03-05T06:48:09.314Z,37.03
2023-03-05T06:49:09.352Z,36.72
2023-03-05T06:50:09.383Z,37.63
2023-03-05T06:51:09.423Z,38.79
2023-03-05T06:52:09.450Z,35.70
2023-03-05T06:53:09.482Z,39.29
2023-03-05T06:54:09.526Z,37.34
2023-03-05T06:55:09.549Z,40.27
2023-03-05T06:56:09.585Z,36.95
2023-03-05T06:57:09.627Z,38.76
2023-03-05T06:58:09.663Z,40.66
2023-03-05T06:59:09.677Z,39.49
2023-03-05T07:00:09.716Z,39.20
2023-03-05T07:01:09.792Z,38.21
2023-03-05T07:02:09.794Z,38.17
2023-03-05T07:03:09.803Z,37.77
2023-03-05T07:04:09.843Z,39.94
2023-03-05T07:05:09.902Z,38.43
2023-03-05T07:06:09.898Z,39.05
2023-03-05T07:07:09.921Z,44.24
2023-03-05T07:08:09.959Z,40.79
2023-03-05T07:09:09.985Z,42.15
2023-03-05T07:10:10.012Z,37.83
2023-03-05T07:11:10.042Z,40.43
2023-03-05T07:12:10.056Z,43.07
2023-03-05T07:13:10.082Z,43.77
2023-03-05T07:14:10.101Z,43.34
2023-03-05T07:15:10.143Z,40.03
2023-03-05T07:16:10.224Z,41.22
2023-03-05T07:17:10.185Z,42.42
2023-03-05T07:18:10.212Z,37.98
2023-03-05T07:19:10.228Z,41.04
2023-03-05T07:20:10.277Z,41.93
2023-03-05T07:21:10.278Z,40.97
2023-03-05T07:22:10.320Z,41.03
2023-03-05T07:23:10.342Z,40.48
2023-03-05T07:24:10.346Z,41.38
2023-03-05T07:25:10.370Z,45.09
2023-03-05T07:26:10.414Z,42.17
2023-03-05T07:27:10.420Z,44.56
2023-03-05T07:28:10.425Z,40.14
2023-03-05T07:29:10.449Z,41.76
2023-03-05T07:30:10.459Z,43.27
2023-03-05T07:31:10.543Z,43.68
2023-03-05T07:32:10.603Z,42.73
2023-03-05T07:33:10.548Z,45.03
2023-03-05T07:34:10.560Z,42.20
2023-03-05T07:35:10.584Z,43.55
2023-03-05T07:36:10.604Z,43.57
2023-03-05T07:37:10.629Z,45.80
2023-03-05T07:38:10.655Z,45.63
2023-03-05T07:39:10.681Z,47.04
2023-03-05T07:40:10.695Z,46.20
2023-03-05T07:41:10.724Z,45.37
2023-03-05T07:42:10.767Z,41.46
2023-03-05T07:43:10.756Z,44.18
2023-03-05T07:44:10.800Z,45.49
2023-03-05T07:45:10.812Z,47.58
2023-03-05T07:46:10.863Z,48.01
2023-03-05T07:47:10.820Z,52.39
2023-03-05T07:48:10.863Z,57.81
2023-03-05T07:49:10.911Z,62.59
2023-03-05T07:50:10.975Z,67.28
2023-03-05T07:51:11.025Z,69.35
2023-03-05T07:52:11.113Z,70.33
2023-03-05T07:53:11.115Z,69.11
2023-03-05T07:54:11.145Z,76.07
2023-03-05T07:55:11.142Z,72.06
2023-03-05T07:56:11.163Z,75.40
2023-03-05T07:57:11.146Z,82.16
2023-03-05T07:58:11.175Z,84.24
2023-03-05T07:59:11.214Z,85.24
2023-03-05T08:00:11.229Z,91.17
2023-03-05T08:01:13.317Z,93.06
2023-03-05T08:02:11.320Z,99.35
2023-03-05T08:03:11.306Z,102.27
2023-03-05T08:04:11.393Z,107.63
2023-03-05T08:05:11.387Z,112.53
2023-03-05T08:06:11.407Z,114.77
2023-03-05T08:07:11.427Z,121.41
2023-03-05T08:08:11.417Z,125.10
2023-03-05T08:09:11.447Z,128.48
2023-03-05T08:10:11.505Z,128.75
2023-03-05T08:11:11.555Z,131.40
2023-03-05T08:12:11.573Z,133.96
2023-03-05T08:13:11.579Z,135.88
2023-03-05T08:14:11.579Z,137.86
2023-03-05T08:15:11.647Z,142.79
2023-03-05T08:16:11.790Z,143.67
2023-03-05T08:17:12.270Z,144.50
2023-03-05T08:18:11.781Z,145.76
2023-03-05T08:19:11.857Z,151.67
2023-03-05T08:20:11.894Z,148.36
2023-03-05T08:21:11.938Z,149.82
2023-03-05T08:22:11.994Z,149.56
2023-03-05T08:23:12.021Z,148.07
2023-03-05T08:24:12.065Z,144.79
2023-03-05T08:25:12.080Z,148.07
2023-03-05T08:26:12.113Z,151.32
2023-03-05T08:27:12.145Z,150.26
2023-03-05T08:28:12.215Z,150.55
2023-03-05T08:29:12.158Z,150.05
2023-03-05T08:30:12.164Z,147.49
2023-03-05T08:31:12.253Z,151.38
2023-03-05T08:32:12.208Z,153.66
2023-03-05T08:34:12.176Z,153.50
2023-03-05T08:35:12.200Z,153.63
2023-03-05T08:36:12.198Z,150.52
2023-03-05T08:37:12.211Z,144.79
2023-03-05T11:23:17.728Z,30.22
2023-03-05T11:24:17.745Z,34.78
2023-03-05T11:25:17.769Z,35.91
2023-03-05T11:26:17.861Z,34.08
2023-03-05T11:27:17.862Z,35.16
2023-03-05T11:28:30.776Z,33.56
2023-03-05T11:29:18.845Z,33.67
2023-03-05T11:30:17.874Z,34.42
2023-03-05T11:31:17.846Z,34.56
2023-03-05T11:32:17.865Z,35.18
2023-03-05T11:33:17.837Z,34.42
2023-03-05T11:34:17.814Z,33.17
2023-03-05T11:35:17.814Z,34.16
2023-03-05T11:36:17.805Z,31.07
2023-03-05T11:37:17.803Z,32.08
2023-03-05T11:38:17.786Z,31.92
2023-03-05T11:39:17.786Z,31.88
2023-03-05T11:40:17.899Z,31.43
2023-03-05T11:41:17.771Z,32.91
2023-03-05T11:42:17.776Z,32.37
2023-03-05T11:43:17.764Z,33.29
2023-03-05T11:44:17.753Z,32.54
2023-03-05T11:45:17.737Z,34.08
2023-03-05T11:46:17.845Z,33.86
2023-03-05T11:47:17.736Z,32.44
2023-03-05T11:48:17.731Z,32.11
2023-03-05T11:49:17.731Z,31.58
2023-03-05T11:50:17.888Z,31.70
2023-03-05T11:56:19.027Z,32.87
2023-03-05T12:21:17.671Z,27.31
2023-03-05T12:22:17.791Z,27.74
2023-03-05T12:23:17.763Z,29.66
2023-03-05T12:24:17.811Z,26.44
2023-03-05T12:25:17.862Z,27.85
2023-03-05T12:26:17.896Z,27.19
2023-03-05T12:27:17.948Z,25.97
2023-03-05T12:28:17.993Z,26.67
2023-03-05T12:29:18.039Z,29.74
2023-03-05T12:30:18.085Z,28.94
2023-03-05T12:31:18.162Z,26.32
2023-03-05T12:32:18.281Z,28.80
2023-03-05T12:33:18.231Z,28.47
2023-03-05T12:34:18.277Z,29.18
2023-03-05T12:35:18.364Z,27.41
2023-03-05T12:36:18.441Z,29.21
2023-03-05T12:37:18.428Z,29.96
2023-03-05T12:38:26.718Z,32.46
2023-03-05T12:39:19.485Z,31.43
2023-03-05T12:40:18.476Z,28.99
2023-03-05T12:41:18.459Z,30.87
2023-03-05T12:42:18.452Z,31.66
2023-03-05T12:43:18.444Z,32.23
2023-03-05T12:44:18.503Z,34.61
2023-03-05T12:45:18.436Z,31.39
2023-03-05T12:46:18.472Z,30.74
2023-03-05T12:47:18.468Z,28.73
2023-03-05T12:48:18.562Z,29.12
2023-03-05T12:49:18.579Z,29.46
2023-03-05T12:50:18.632Z,31.79
2023-03-05T12:51:18.679Z,30.93
2023-03-05T12:52:18.738Z,28.25
2023-03-05T12:53:18.830Z,27.48
2023-03-05T12:54:19.172Z,31.83
2023-03-05T12:55:18.828Z,32.55
2023-03-05T12:56:18.850Z,34.91
2023-03-05T12:57:18.902Z,33.98
2023-03-05T12:58:18.898Z,33.06
2023-03-05T12:59:18.909Z,31.07
2023-03-05T13:00:18.952Z,28.82
2023-03-05T13:01:18.995Z,31.35
2023-03-05T13:02:19.033Z,30.25
2023-03-05T13:03:19.128Z,33.84
2023-03-05T13:04:19.102Z,32.05
2023-03-05T13:05:19.117Z,32.35
2023-03-05T13:06:19.145Z,32.26
2023-03-05T13:07:19.147Z,33.69
2023-03-05T13:08:19.157Z,34.91
2023-03-05T13:09:19.160Z,32.43
2023-03-05T13:10:19.145Z,31.01
2023-03-05T13:11:19.172Z,31.99
2023-03-05T13:12:19.241Z,32.52
2023-03-05T13:13:20.661Z,33.22
2023-03-05T13:14:19.157Z,31.78
2023-03-05T13:15:19.159Z,33.40
2023-03-05T13:16:19.216Z,33.64
2023-03-05T13:17:19.243Z,36.36
2023-03-05T13:18:19.164Z,35.67
2023-03-05T13:19:19.175Z,37.07
2023-03-05T13:20:19.152Z,37.91
2023-03-05T13:21:19.171Z,33.91
2023-03-05T13:22:19.160Z,33.52
2023-03-05T13:23:19.161Z,35.52
2023-03-05T13:24:19.170Z,35.88
2023-03-05T13:25:19.173Z,35.09
2023-03-05T13:26:19.158Z,37.24
2023-03-05T13:27:19.159Z,36.92
2023-03-05T13:28:19.167Z,37.28
2023-03-05T13:29:19.185Z,35.53
2023-03-05T13:30:19.171Z,38.14
2023-03-05T13:31:19.265Z,37.48
2023-03-05T13:32:19.247Z,38.06
2023-03-05T13:33:19.195Z,38.14
2023-03-05T13:34:19.197Z,39.83
2023-03-05T13:35:19.239Z,36.83
2023-03-05T13:36:19.212Z,39.33
2023-03-05T13:37:19.222Z,38.34
2023-03-05T13:38:19.208Z,37.01
2023-03-05T13:39:19.211Z,39.61
2023-03-05T13:40:19.219Z,36.90
2023-03-05T13:41:19.227Z,37.82
2023-03-05T13:42:19.226Z,39.45
2023-03-05T13:43:19.236Z,36.25
2023-03-05T13:44:19.246Z,35.97
2023-03-05T13:45:19.268Z,36.29
2023-03-05T13:46:19.326Z,38.36
2023-03-05T13:47:19.291Z,37.68
2023-03-05T14:15:19.887Z,33.38
2023-03-05T14:16:19.927Z,33.46
2023-03-05T14:17:19.940Z,32.98
2023-03-05T14:18:19.985Z,33.08
2023-03-05T14:19:20.010Z,34.25
2023-03-05T14:20:20.038Z,34.90
2023-03-05T14:21:20.073Z,34.21
2023-03-05T14:22:20.124Z,32.91
2023-03-05T14:23:26.411Z,29.26
2023-03-05T14:25:20.128Z,26.15
2023-03-05T14:26:20.139Z,25.30
2023-03-05T14:27:20.118Z,20.74
2023-03-05T14:28:20.116Z,23.17
2023-03-05T14:29:20.113Z,26.46
2023-03-05T14:30:20.115Z,27.85
2023-03-05T14:31:20.157Z,31.59
2023-03-05T14:32:20.142Z,33.52
2023-03-05T14:33:20.092Z,33.14
2023-03-05T14:34:20.135Z,34.60
2023-03-05T14:35:20.950Z,33.60
2023-03-05T14:36:20.052Z,32.73
2023-03-05T14:37:20.055Z,35.34
2023-03-05T14:38:20.045Z,37.36
2023-03-05T14:39:20.042Z,40.65
2023-03-05T14:40:20.662Z,37.68
2023-03-05T14:41:20.108Z,34.36
2023-03-05T14:42:20.157Z,27.59
2023-03-05T14:43:20.195Z,30.93
2023-03-05T14:44:20.233Z,31.63
2023-03-05T14:45:20.260Z,32.41
2023-03-05T14:46:20.329Z,34.80
2023-03-05T14:47:20.334Z,32.74
2023-03-05T14:48:20.440Z,31.93
2023-03-05T14:49:20.422Z,31.50
2023-03-05T14:50:20.468Z,30.70
2023-03-05T14:51:21.430Z,28.83
2023-03-05T14:52:20.537Z,25.21
2023-03-05T14:53:20.582Z,26.42
2023-03-05T14:54:20.621Z,25.21
2023-03-05T14:55:20.671Z,25.53
2023-03-05T14:56:20.708Z,25.00
2023-03-05T14:57:20.761Z,26.97
2023-03-05T14:58:20.809Z,25.00
2023-03-05T14:59:20.845Z,25.84
2023-03-05T15:00:20.897Z,29.65
2023-03-05T15:01:21.002Z,35.11
2023-03-05T15:02:21.140Z,33.23
2023-03-05T15:03:21.038Z,32.55
2023-03-05T15:04:21.105Z,28.41
2023-03-05T15:05:21.139Z,28.06
2023-03-05T15:06:24.200Z,32.18
2023-03-05T15:07:22.175Z,31.46
2023-03-05T15:08:21.255Z,32.28
2023-03-05T15:09:21.350Z,33.91
2023-03-05T15:10:21.164Z,33.02
2023-03-05T15:11:21.154Z,28.93
2023-03-05T15:12:21.143Z,29.09
2023-03-05T15:13:21.137Z,29.01
2023-03-05T15:14:21.134Z,28.90
2023-03-05T15:15:21.134Z,31.51
2023-03-05T15:16:21.111Z,33.18
2023-03-05T15:17:21.158Z,29.11
2023-03-05T15:18:21.203Z,25.92
2023-03-05T15:19:21.256Z,25.71
2023-03-05T15:20:21.445Z,29.33
2023-03-05T15:21:21.380Z,31.06
2023-03-05T15:22:21.441Z,28.83
2023-03-05T15:23:21.525Z,31.48
2023-03-05T15:24:21.556Z,27.05
2023-03-05T16:24:24.355Z,49.58
2023-03-05T16:25:24.361Z,47.07
2023-03-05T16:26:24.380Z,47.42
2023-03-05T16:27:24.405Z,43.72
2023-03-05T16:28:24.414Z,45.83
2023-03-05T16:29:24.459Z,48.64
2023-03-05T16:30:24.414Z,51.01
2023-03-05T16:31:24.528Z,50.08
2023-03-05T16:32:24.470Z,51.41
2023-03-05T16:33:24.425Z,50.34
2023-03-05T16:34:24.423Z,48.04
2023-03-05T16:35:24.440Z,45.76
2023-03-05T16:36:24.428Z,49.23
2023-03-05T16:37:24.446Z,45.06
2023-03-05T16:38:24.461Z,45.22
2023-03-05T16:39:24.450Z,45.20
2023-03-05T16:40:24.504Z,46.20
2023-03-05T16:41:24.548Z,48.52
2023-03-05T16:42:24.508Z,46.56
2023-03-05T16:43:24.434Z,48.45
2023-03-05T16:44:24.419Z,48.77
2023-03-05T16:45:24.428Z,49.12
2023-03-05T16:46:24.476Z,48.55
2023-03-05T16:47:24.426Z,49.04
2023-03-05T16:48:24.472Z,48.04
2023-03-05T16:49:24.461Z,45.89
2023-03-05T16:50:24.468Z,45.65
2023-03-05T16:51:24.470Z,45.53
2023-03-05T16:52:24.530Z,44.76
2023-03-05T16:53:24.535Z,45.23
2023-03-05T16:54:24.533Z,45.94
2023-03-05T16:55:24.548Z,43.99
2023-03-05T16:56:24.608Z,43.60
2023-03-05T16:57:24.541Z,41.83
2023-03-05T16:58:25.032Z,43.73
2023-03-05T16:59:24.549Z,44.64
2023-03-05T17:00:24.556Z,43.73
2023-03-05T17:01:24.637Z,43.00
2023-03-05T17:02:24.557Z,43.69
2023-03-05T17:03:24.569Z,45.67
2023-03-05T17:04:24.615Z,43.38
2023-03-05T17:05:24.572Z,42.76
2023-03-05T17:06:25.475Z,42.50
2023-03-05T17:07:24.587Z,41.47
2023-03-05T17:08:24.606Z,40.81
2023-03-05T17:09:24.613Z,43.30
2023-03-05T17:10:24.597Z,40.86
2023-03-05T17:11:24.641Z,41.98
2023-03-05T17:12:24.719Z,44.33
2023-03-05T17:13:24.664Z,42.07
2023-03-05T17:14:25.478Z,42.44
2023-03-05T17:15:24.663Z,40.97
2023-03-05T17:16:24.705Z,41.59
2023-03-05T17:17:24.689Z,43.74
2023-03-05T17:18:24.696Z,43.92
2023-03-05T17:19:24.714Z,42.58
2023-03-05T17:20:24.740Z,40.39
2023-03-05T17:21:24.746Z,39.38
2023-03-05T17:22:24.772Z,41.52
2023-03-05T17:23:24.762Z,43.53
2023-03-05T17:24:24.797Z,40.71
2023-03-05T17:25:24.888Z,41.27
2023-03-05T17:26:24.922Z,42.94
2023-03-05T17:27:24.926Z,42.69
2023-03-05T17:28:24.959Z,39.65
2023-03-05T17:29:25.054Z,39.00
2023-03-05T17:30:24.967Z,38.41
2023-03-05T17:31:25.046Z,40.02
2023-03-05T17:32:25.016Z,40.42
2023-03-05T17:33:25.036Z,39.07
2023-03-05T17:34:35.626Z,40.67
2023-03-05T19:43:28.535Z,41.62
2023-03-05T19:44:27.771Z,44.34
2023-03-05T19:45:27.797Z,45.61
2023-03-05T19:46:27.858Z,42.77
2023-03-05T19:47:27.858Z,44.91
2023-03-05T19:48:27.875Z,41.36
2023-03-05T19:49:27.916Z,41.26
2023-03-05T19:50:27.923Z,42.77
2023-03-05T19:51:27.946Z,43.79
2023-03-05T19:52:27.970Z,43.60
2023-03-05T19:53:27.998Z,44.01
2023-03-05T19:54:28.057Z,39.39
2023-03-05T19:55:28.057Z,40.39
2023-03-05T19:56:28.086Z,43.44
2023-03-05T19:57:28.125Z,40.21
2023-03-05T19:58:28.147Z,41.15
2023-03-05T19:59:28.175Z,43.58
2023-03-05T20:00:28.222Z,40.18
2023-03-05T20:01:29.047Z,41.31
2023-03-05T20:02:28.281Z,45.07
2023-03-05T20:03:28.281Z,44.87
2023-03-05T20:04:28.334Z,45.32
2023-03-05T20:05:28.344Z,43.96
2023-03-05T20:06:28.378Z,43.67
2023-03-05T20:07:28.409Z,44.14
2023-03-05T20:08:28.435Z,42.92
2023-03-05T20:09:28.520Z,44.76
2023-03-05T20:51:30.094Z,50.78
2023-03-05T20:52:29.841Z,51.44
2023-03-05T20:53:29.880Z,49.32
2023-03-05T20:54:29.914Z,46.61
2023-03-05T20:55:29.946Z,47.67
2023-03-05T20:56:30.015Z,48.14
2023-03-05T20:57:30.034Z,46.19
2023-03-05T20:58:30.079Z,48.66
2023-03-05T20:59:30.122Z,49.46
2023-03-05T21:00:30.202Z,47.77
2023-03-05T21:01:30.215Z,49.60
2023-03-05T21:02:30.252Z,49.50
2023-03-05T21:03:30.288Z,49.15
2023-03-05T21:04:30.331Z,48.64
2023-03-05T21:05:30.371Z,51.01
2023-03-05T21:06:30.480Z,48.33
2023-03-05T21:07:30.441Z,48.48
2023-03-05T21:08:30.475Z,51.29
2023-03-05T21:09:30.502Z,48.15
2023-03-05T21:10:30.541Z,46.86
2023-03-05T21:11:30.589Z,50.19
2023-03-05T21:12:30.625Z,52.57
2023-03-05T21:13:30.718Z,50.74
2023-03-05T21:14:30.733Z,46.75
2023-03-05T21:15:30.733Z,50.94
2023-03-05T21:16:30.859Z,52.74
2023-03-05T21:17:30.815Z,50.59
2023-03-05T21:18:30.846Z,51.29
2023-03-05T21:19:33.338Z,49.98
2023-03-05T21:21:30.943Z,47.93
2023-03-05T21:22:30.862Z,49.91
2023-03-05T21:23:30.849Z,50.77
2023-03-05T21:24:30.849Z,50.17
2023-03-05T21:25:30.844Z,51.74
2023-03-05T21:26:30.834Z,51.89
2023-03-05T21:27:30.831Z,50.77
2023-03-05T21:28:30.814Z,49.53
2023-03-05T21:29:30.811Z,50.38
2023-03-05T21:30:30.801Z,49.88
2023-03-05T21:31:30.819Z,52.46
2023-03-05T21:32:30.836Z,49.05
2023-03-05T21:33:30.781Z,49.68
2023-03-05T21:34:30.774Z,49.24
2023-03-05T21:35:30.772Z,51.07
2023-03-05T21:36:30.756Z,49.18
2023-03-05T21:37:30.765Z,49.67
2023-03-05T21:38:30.760Z,46.03
2023-03-05T21:39:30.731Z,50.82
2023-03-05T21:40:30.730Z,50.98
2023-03-05T21:41:30.721Z,50.11
2023-03-05T21:42:30.723Z,53.20
2023-03-05T21:43:30.710Z,49.39
2023-03-05T21:44:30.700Z,52.65
2023-03-05T21:45:30.757Z,49.29
2023-03-05T21:46:30.747Z,48.17
2023-03-05T21:47:30.679Z,49.75
2023-03-05T21:48:30.675Z,49.18
2023-03-05T21:49:30.657Z,51.35
2023-03-05T21:50:30.654Z,51.16
2023-03-05T21:51:31.660Z,50.81
2023-03-05T21:52:30.647Z,52.49
2023-03-05T21:53:30.642Z,49.45
2023-03-05T21:54:30.636Z,52.04
2023-03-05T21:55:30.626Z,49.36
2023-03-05T21:56:30.647Z,49.86
2023-03-05T21:57:30.620Z,52.34
2023-03-05T21:58:30.616Z,52.45
2023-03-05T21:59:30.611Z,47.89
2023-03-05T22:00:30.591Z,50.90
2023-03-05T22:01:30.659Z,52.86
2023-03-05T22:02:30.681Z,54.17
2023-03-05T22:03:30.764Z,53.74
2023-03-05T22:04:30.746Z,51.86
2023-03-05T22:05:30.797Z,52.75
2023-03-05T22:06:30.829Z,51.73
2023-03-05T22:07:30.873Z,50.75
2023-03-05T22:08:30.919Z,50.42
2023-03-05T22:09:30.995Z,52.45
2023-03-05T22:10:30.998Z,51.26
2023-03-05T22:11:31.033Z,50.65
2023-03-05T22:12:31.073Z,49.79
2023-03-05T22:13:31.189Z,49.32
2023-03-05T22:14:31.164Z,48.95
2023-03-05T22:15:31.207Z,52.78
2023-03-05T22:16:31.380Z,50.53
2023-03-05T22:17:31.275Z,52.44
2023-03-05T22:18:31.316Z,53.23
2023-03-05T22:19:31.359Z,52.84
2023-03-05T22:20:31.399Z,52.23
2023-03-05T22:21:31.448Z,53.59
